createdAt,value
2019-05-03T00:02:17.472Z,53.40
2019-05-03T00:04:51.561Z,54.90
2019-05-03T00:07:22.320Z,54.60
2019-05-03T00:09:52.858Z,54.80
2019-05-03T00:12:23.219Z,54.20
2019-05-03T00:15:07.540Z,54.70
2019-05-03T00:17:39.263Z,53.40
2019-05-03T00:20:11.548Z,54.20
2019-05-03T00:22:42.132Z,54.90
2019-05-03T00:25:12.946Z,54.20
2019-05-03T00:27:43.342Z,53.60
2019-05-03T00:30:22.567Z,55.50
2019-05-03T00:32:53.348Z,53.40
2019-05-03T00:35:29.438Z,52.20
2019-05-03T00:38:02.076Z,52.80
2019-05-03T00:40:32.892Z,51.80
2019-05-03T00:43:03.246Z,50.70
2019-05-03T00:45:33.673Z,51.30
2019-05-03T00:48:04.008Z,52.10
2019-05-03T00:50:34.734Z,53.40
2019-05-03T00:53:05.086Z,55.00
2019-05-03T00:55:35.724Z,55.80
2019-05-03T00:58:06.067Z,53.60
2019-05-03T01:00:36.389Z,51.60
2019-05-03T01:03:06.767Z,51.60
2019-05-03T01:05:37.524Z,52.00
2019-05-03T01:08:07.848Z,52.30
2019-05-03T01:10:38.203Z,51.90
2019-05-03T01:13:08.597Z,51.50
2019-05-03T01:15:52.644Z,50.00
2019-05-03T01:18:23.380Z,49.90
2019-05-03T01:20:54.320Z,48.70
2019-05-03T01:23:24.951Z,48.40
2019-05-03T01:25:55.330Z,47.50
2019-05-03T01:28:27.385Z,46.90
2019-05-03T01:30:58.306Z,46.80
2019-05-03T01:33:28.685Z,46.80
2019-05-03T01:35:59.014Z,46.70
2019-05-03T01:38:29.347Z,46.60
2019-05-03T01:41:01.744Z,47.40
2019-05-03T01:43:32.659Z,46.70
2019-05-03T01:46:03.059Z,46.50
2019-05-03T01:48:41.672Z,46.70
2019-05-03T01:51:30.283Z,46.60
2019-05-03T01:54:01.663Z,46.60
2019-05-03T01:56:32.490Z,46.50
2019-05-03T01:59:03.151Z,46.10
2019-05-03T02:01:42.167Z,46.50
2019-05-03T02:04:14.390Z,45.50
2019-05-03T02:06:45.138Z,42.90
2019-05-03T02:09:15.738Z,42.80
2019-05-03T02:11:46.424Z,41.80
2019-05-03T02:14:16.802Z,41.20
2019-05-03T02:16:47.166Z,41.90
2019-05-03T02:19:17.782Z,41.80
2019-05-03T02:21:48.156Z,41.00
2019-05-03T02:24:18.946Z,41.30
2019-05-03T02:26:49.726Z,41.40
2019-05-03T02:29:21.832Z,41.70
2019-05-03T02:31:54.390Z,41.20
2019-05-03T02:34:25.277Z,37.50
2019-05-03T02:36:55.921Z,37.00
2019-05-03T02:39:26.774Z,36.90
2019-05-03T02:42:02.966Z,38.30
2019-05-03T02:44:30.350Z,39.00
2019-05-03T02:47:02.351Z,39.30
2019-05-03T02:49:35.377Z,39.40
2019-05-03T02:52:06.772Z,40.20
2019-05-03T02:54:37.266Z,40.80
2019-05-03T02:57:10.334Z,41.50
2019-05-03T02:59:40.970Z,41.50
2019-05-03T03:02:12.316Z,41.80
2019-05-03T03:04:45.397Z,41.80
2019-05-03T03:07:15.994Z,41.80
2019-05-03T03:09:46.792Z,42.20
2019-05-03T03:12:17.950Z,42.80
2019-05-03T03:14:48.583Z,42.60
2019-05-03T03:17:19.488Z,43.60
2019-05-03T03:19:49.882Z,43.60
2019-05-03T03:22:20.398Z,44.20
2019-05-03T03:24:52.952Z,44.20
2019-05-03T03:27:25.820Z,44.00
2019-05-03T03:30:29.416Z,44.60
2019-05-03T03:33:08.167Z,44.40
2019-05-03T03:35:38.532Z,45.10
2019-05-03T03:38:09.144Z,43.40
2019-05-03T03:40:39.964Z,41.30
2019-05-03T03:43:10.956Z,41.30
2019-05-03T03:45:41.396Z,41.20
2019-05-03T03:48:12.523Z,39.40
2019-05-03T03:50:45.739Z,38.00
2019-05-03T03:53:15.681Z,39.00
2019-05-03T03:55:48.168Z,39.90
2019-05-03T03:58:23.028Z,40.40
2019-05-03T04:00:50.741Z,40.90
2019-05-03T04:03:22.125Z,41.00
2019-05-03T04:05:55.371Z,40.90
2019-05-03T04:08:25.355Z,40.90
2019-05-03T04:10:56.023Z,41.90
2019-05-03T04:13:27.756Z,42.60
2019-05-03T04:16:00.560Z,42.00
2019-05-03T04:18:42.441Z,42.00
2019-05-03T04:21:12.855Z,42.10
2019-05-03T04:24:05.962Z,42.50
2019-05-03T04:26:36.102Z,42.60
2019-05-03T04:29:10.234Z,42.30
2019-05-03T04:31:40.982Z,42.60
2019-05-03T04:34:11.700Z,42.60
2019-05-03T04:36:42.514Z,43.10
2019-05-03T04:39:17.177Z,43.50
2019-05-03T04:41:48.327Z,43.50
2019-05-03T04:44:19.120Z,43.30
2019-05-03T04:46:49.512Z,43.50
2019-05-03T04:49:19.910Z,43.50
2019-05-03T04:51:51.992Z,43.50
2019-05-03T04:54:26.974Z,44.00
2019-05-03T04:56:58.032Z,44.10
2019-05-03T04:59:28.458Z,44.60
2019-05-03T05:01:58.849Z,44.70
2019-05-03T05:04:29.463Z,45.10
2019-05-03T05:07:00.101Z,44.40
2019-05-03T05:09:31.111Z,44.80
2019-05-03T05:12:01.525Z,44.50
2019-05-03T05:14:32.079Z,45.10
2019-05-03T05:17:05.842Z,45.00
2019-05-03T05:19:42.292Z,44.60
2019-05-03T05:22:29.497Z,44.80
2019-05-03T05:25:01.845Z,45.30
2019-05-03T05:27:47.925Z,45.70
2019-05-03T05:30:10.386Z,45.60
2019-05-03T05:32:41.644Z,45.70
2019-05-03T05:35:14.380Z,45.50
2019-05-03T05:37:45.820Z,47.00
2019-05-03T05:40:16.750Z,47.20
2019-05-03T05:42:47.785Z,47.80
2019-05-03T05:45:18.202Z,47.00
2019-05-03T05:47:56.025Z,46.20
2019-05-03T05:50:29.247Z,46.50
2019-05-03T05:52:59.581Z,46.60
2019-05-03T05:58:34.814Z,45.60
2019-05-03T06:01:07.353Z,45.70
2019-05-03T06:03:37.739Z,45.00
2019-05-03T06:06:09.787Z,45.30
2019-05-03T06:08:44.839Z,44.60
2019-05-03T06:11:26.164Z,43.20
2019-05-03T06:14:15.310Z,42.80
2019-05-03T06:17:06.160Z,41.90
2019-05-03T06:19:44.957Z,42.30
2019-05-03T06:22:26.199Z,42.80
2019-05-03T06:24:58.707Z,42.80
2019-05-03T06:27:30.743Z,41.90
2019-05-03T06:30:04.685Z,42.50
2019-05-03T06:32:36.738Z,40.90
2019-05-03T06:35:07.698Z,41.50
2019-05-03T06:37:40.286Z,39.60
2019-05-03T06:40:11.123Z,39.70
2019-05-03T06:42:52.536Z,40.40
2019-05-03T06:45:15.058Z,40.20
2019-05-03T06:47:49.933Z,39.40
2019-05-03T06:50:19.540Z,39.10
2019-05-03T06:52:50.910Z,38.40
2019-05-03T06:55:21.271Z,35.80
2019-05-03T06:57:51.612Z,36.10
2019-05-03T07:00:38.955Z,36.10
2019-05-03T07:03:25.063Z,35.90
2019-05-03T07:06:14.968Z,36.00
2019-05-03T07:08:54.953Z,34.20
2019-05-03T07:11:25.558Z,34.50
2019-05-03T07:13:55.952Z,34.60
2019-05-03T07:16:26.469Z,34.70
2019-05-03T07:18:58.575Z,34.00
2019-05-03T07:21:29.063Z,35.10
2019-05-03T07:23:59.574Z,35.10
2019-05-03T07:26:31.870Z,35.90
2019-05-03T07:29:04.991Z,33.00
2019-05-03T07:31:35.502Z,33.10
2019-05-03T07:34:05.891Z,33.60
2019-05-03T07:36:36.543Z,34.40
2019-05-03T07:39:08.603Z,33.50
2019-05-03T07:41:38.938Z,33.80
2019-05-03T07:44:09.296Z,32.10
2019-05-03T07:46:39.655Z,32.70
2019-05-03T07:49:10.383Z,33.10
2019-05-03T07:51:40.737Z,31.40
2019-05-03T07:54:11.631Z,31.40
2019-05-03T07:56:44.593Z,30.70
2019-05-03T07:59:15.104Z,29.70
2019-05-03T08:01:50.566Z,27.50
2019-05-03T08:04:21.519Z,28.20
2019-05-03T08:06:52.135Z,28.30
2019-05-03T08:09:24.598Z,28.30
2019-05-03T08:11:55.104Z,27.80
2019-05-03T08:14:25.485Z,28.80
2019-05-03T08:16:55.838Z,27.20
2019-05-03T08:19:27.090Z,27.50
2019-05-03T08:21:57.953Z,28.20
2019-05-03T08:24:28.650Z,28.30
2019-05-03T08:26:59.748Z,28.90
2019-05-03T08:29:30.179Z,28.40
2019-05-03T08:32:05.371Z,27.60
2019-05-03T08:34:40.737Z,26.40
2019-05-03T08:37:15.345Z,27.90
2019-05-03T08:39:45.684Z,27.60
2019-05-03T08:42:35.515Z,27.60
2019-05-03T08:45:08.124Z,25.00
2019-05-03T08:47:39.157Z,26.40
2019-05-03T08:50:09.856Z,26.60
2019-05-03T08:52:40.226Z,26.40
2019-05-03T08:55:10.821Z,26.60
2019-05-03T08:57:41.810Z,24.90
2019-05-03T09:00:16.985Z,24.80
2019-05-03T09:02:47.422Z,25.90
2019-05-03T09:05:18.670Z,25.50
2019-05-03T09:07:50.843Z,24.90
2019-05-03T09:10:24.940Z,24.20
2019-05-03T09:13:11.638Z,21.40
2019-05-03T09:15:44.584Z,21.70
2019-05-03T09:18:17.502Z,22.60
2019-05-03T09:20:47.310Z,22.40
2019-05-03T09:23:17.701Z,23.20
2019-05-03T09:25:48.094Z,21.80
2019-05-03T09:28:18.584Z,21.70
2019-05-03T09:30:49.124Z,23.00
2019-05-03T09:33:19.501Z,22.70
2019-05-03T09:35:50.818Z,23.20
2019-05-03T09:38:21.163Z,23.20
2019-05-03T09:40:51.973Z,23.00
2019-05-03T09:43:24.914Z,22.00
2019-05-03T09:45:55.218Z,21.90
2019-05-03T09:48:25.710Z,22.00
2019-05-03T09:50:57.467Z,21.70
2019-05-03T09:53:35.384Z,21.70
2019-05-03T09:56:05.776Z,22.20
2019-05-03T09:58:38.142Z,22.00
2019-05-03T10:01:08.847Z,22.50
2019-05-03T10:03:39.926Z,21.60
2019-05-03T10:06:10.604Z,23.40
2019-05-03T10:08:40.980Z,21.70
2019-05-03T10:11:11.913Z,21.60
2019-05-03T10:13:42.319Z,21.30
2019-05-03T10:16:15.314Z,20.60
2019-05-03T10:18:46.178Z,19.30
2019-05-03T10:21:17.078Z,19.90
2019-05-03T10:23:47.879Z,19.70
2019-05-03T10:26:18.387Z,20.70
2019-05-03T10:28:48.988Z,20.90
2019-05-03T10:31:21.360Z,20.70
2019-05-03T10:33:59.632Z,21.20
2019-05-03T10:36:30.864Z,19.80
2019-05-03T10:39:01.240Z,19.80
2019-05-03T10:41:31.641Z,20.20
2019-05-03T10:44:01.982Z,20.20
2019-05-03T10:46:34.574Z,20.80
2019-05-03T10:49:05.748Z,21.90
2019-05-03T10:51:37.900Z,21.20
2019-05-03T10:54:08.259Z,20.90
2019-05-03T10:56:40.350Z,20.20
2019-05-03T10:59:11.592Z,17.90
2019-05-03T11:02:01.986Z,19.10
2019-05-03T11:04:33.691Z,19.20
2019-05-03T11:07:05.726Z,19.30
2019-05-03T11:09:48.571Z,18.40
2019-05-03T11:12:08.841Z,19.00
2019-05-03T11:14:39.831Z,19.40
2019-05-03T11:17:10.541Z,20.10
2019-05-03T11:19:40.976Z,21.00
2019-05-03T11:22:11.397Z,20.90
2019-05-03T11:24:41.757Z,21.80
2019-05-03T11:27:25.421Z,21.70
2019-05-03T11:29:55.818Z,21.00
2019-05-03T11:32:36.704Z,20.90
2019-05-03T11:35:11.667Z,21.40
2019-05-03T11:37:45.254Z,21.50
2019-05-03T11:40:15.739Z,21.30
2019-05-03T11:42:47.060Z,21.90
2019-05-03T11:45:18.004Z,21.30
2019-05-03T11:47:48.531Z,21.80
2019-05-03T11:50:19.200Z,22.20
2019-05-03T11:52:50.548Z,20.80
2019-05-03T11:55:20.921Z,19.70
2019-05-03T11:57:51.504Z,18.70
2019-05-03T12:00:25.713Z,19.80
2019-05-03T12:02:58.160Z,19.20
2019-05-03T12:05:32.026Z,20.00
2019-05-03T12:08:02.534Z,20.50
2019-05-03T12:10:49.717Z,20.40
2019-05-03T12:13:06.697Z,20.40
2019-05-03T12:15:37.089Z,20.00
2019-05-03T12:18:09.747Z,20.30
2019-05-03T12:20:42.533Z,20.60
2019-05-03T12:23:16.564Z,20.90
2019-05-03T12:25:47.126Z,20.50
2019-05-03T12:28:18.171Z,20.60
2019-05-03T12:30:49.081Z,20.20
2019-05-03T12:33:19.437Z,19.60
2019-05-03T12:35:49.809Z,19.70
2019-05-03T12:38:20.144Z,19.80
2019-05-03T12:40:50.566Z,19.90
2019-05-03T12:43:21.223Z,20.10
2019-05-03T12:45:52.051Z,18.90
2019-05-03T12:48:24.525Z,19.50
2019-05-03T12:50:55.015Z,19.50
2019-05-03T12:53:25.740Z,19.40
2019-05-03T12:55:56.105Z,19.90
2019-05-03T12:58:28.223Z,21.00
2019-05-03T13:01:09.775Z,20.70
2019-05-03T13:03:42.121Z,22.00
2019-05-03T13:06:14.943Z,21.20
2019-05-03T13:08:46.195Z,21.30
2019-05-03T13:11:16.806Z,21.30
2019-05-03T13:13:47.197Z,21.20
2019-05-03T13:16:19.440Z,21.60
2019-05-03T13:18:50.227Z,21.20
2019-05-03T13:21:22.143Z,20.50
2019-05-03T13:23:54.703Z,19.60
2019-05-03T13:26:25.423Z,19.90
2019-05-03T13:28:59.475Z,19.20
2019-05-03T13:31:28.944Z,18.60
2019-05-03T13:33:59.677Z,17.70
2019-05-03T13:36:30.090Z,18.00
2019-05-03T13:39:13.036Z,19.10
2019-05-03T13:41:34.948Z,18.40
2019-05-03T13:44:05.547Z,19.10
2019-05-03T13:46:35.961Z,20.00
2019-05-03T13:49:08.746Z,20.30
2019-05-03T13:51:39.385Z,21.20
2019-05-03T13:54:10.977Z,21.50
2019-05-03T13:56:41.876Z,21.80
2019-05-03T13:59:18.996Z,21.70
2019-05-03T14:01:45.041Z,22.40
2019-05-03T14:04:17.490Z,22.70
2019-05-03T14:06:48.117Z,21.70
2019-05-03T14:09:18.912Z,21.70
2019-05-03T14:11:49.971Z,21.90
2019-05-03T14:14:20.466Z,21.10
2019-05-03T14:16:51.277Z,21.10
2019-05-03T14:19:38.667Z,20.60
2019-05-03T14:22:11.279Z,19.40
2019-05-03T14:24:42.054Z,19.90
2019-05-03T14:27:15.653Z,19.90
2019-05-03T14:29:45.618Z,20.10
2019-05-03T14:32:25.733Z,20.20
2019-05-03T14:34:49.252Z,20.40
2019-05-03T14:37:20.023Z,20.70
2019-05-03T14:40:10.196Z,20.00
2019-05-03T14:42:41.135Z,20.20
2019-05-03T14:45:12.014Z,21.20
2019-05-03T14:47:42.656Z,21.30
2019-05-03T14:50:15.039Z,22.20
2019-05-03T14:52:45.731Z,22.10
2019-05-03T14:55:34.663Z,22.30
2019-05-03T14:58:14.780Z,22.40
2019-05-03T15:00:47.433Z,23.60
2019-05-03T15:03:24.623Z,22.70
2019-05-03T15:05:58.349Z,23.30
2019-05-03T15:08:27.627Z,24.00
2019-05-03T15:10:58.278Z,24.30
2019-05-03T15:13:28.962Z,24.90
2019-05-03T15:16:02.485Z,24.80
2019-05-03T15:18:34.867Z,24.70
2019-05-03T15:21:05.576Z,25.20
2019-05-03T15:23:36.621Z,25.30
2019-05-03T15:26:07.393Z,25.30
2019-05-03T15:28:37.772Z,25.30
2019-05-03T15:31:08.275Z,24.40
2019-05-03T15:33:39.084Z,24.50
2019-05-03T15:36:09.450Z,24.20
2019-05-03T15:38:41.573Z,24.20
2019-05-03T15:41:14.551Z,24.70
2019-05-03T15:43:48.742Z,24.50
2019-05-03T15:46:25.164Z,25.20
2019-05-03T15:48:57.945Z,25.10
2019-05-03T15:51:28.293Z,25.00
2019-05-03T15:54:01.843Z,25.20
2019-05-03T15:56:32.420Z,25.20
2019-05-03T15:59:04.457Z,25.20
2019-05-03T16:01:35.489Z,25.20
2019-05-03T16:04:05.829Z,25.30
2019-05-03T16:06:36.472Z,25.60
2019-05-03T16:09:08.097Z,25.20
2019-05-03T16:11:38.462Z,25.60
2019-05-03T16:14:11.751Z,25.80
2019-05-03T16:16:42.859Z,26.00
2019-05-03T16:19:14.697Z,26.20
2019-05-03T16:21:45.480Z,26.40
2019-05-03T16:24:15.876Z,27.10
2019-05-03T16:27:06.029Z,26.70
2019-05-03T16:29:37.523Z,26.70
2019-05-03T16:32:07.871Z,26.30
2019-05-03T16:34:38.264Z,26.20
2019-05-03T16:37:09.006Z,26.30
2019-05-03T16:39:40.885Z,25.90
2019-05-03T16:42:11.584Z,25.80
2019-05-03T16:44:44.312Z,25.20
2019-05-03T16:47:15.777Z,25.20
2019-05-03T16:49:46.565Z,25.20
2019-05-03T16:52:17.442Z,25.40
2019-05-03T16:54:48.684Z,25.90
2019-05-03T16:57:19.058Z,26.10
2019-05-03T16:59:49.394Z,25.60
2019-05-03T17:02:19.814Z,25.40
2019-05-03T17:05:01.823Z,25.30
2019-05-03T17:07:35.334Z,25.20
2019-05-03T17:10:10.723Z,25.30
2019-05-03T17:12:41.464Z,24.70
2019-05-03T17:15:14.344Z,24.80
2019-05-03T17:17:45.177Z,23.70
2019-05-03T17:20:16.607Z,24.10
2019-05-03T17:22:47.340Z,24.30
2019-05-03T17:25:17.686Z,24.50
2019-05-03T17:27:48.524Z,24.90
2019-05-03T17:30:18.894Z,24.80
2019-05-03T17:32:49.633Z,25.40
2019-05-03T17:35:20.343Z,25.60
2019-05-03T17:37:50.989Z,25.90
2019-05-03T17:40:23.004Z,26.20
2019-05-03T17:43:01.765Z,26.20
2019-05-03T17:45:35.700Z,26.30
2019-05-03T17:48:07.358Z,26.30
2019-05-03T17:50:38.220Z,26.50
2019-05-03T17:53:14.734Z,26.90
2019-05-03T17:55:58.885Z,27.20
2019-05-03T17:58:34.964Z,27.50
2019-05-03T18:01:07.104Z,28.20
2019-05-03T18:03:40.599Z,28.00
2019-05-03T18:06:21.955Z,28.40
2019-05-03T18:09:00.089Z,28.80
2019-05-03T18:11:32.074Z,28.30
2019-05-03T18:14:02.833Z,28.30
2019-05-03T18:16:35.011Z,28.70
2019-05-03T18:19:05.767Z,29.20
2019-05-03T18:21:36.448Z,29.30
2019-05-03T18:24:06.842Z,29.60
2019-05-03T18:26:37.200Z,29.70
2019-05-03T18:29:07.535Z,30.40
2019-05-03T18:31:38.321Z,30.60
2019-05-03T18:34:18.915Z,30.90
2019-05-03T18:36:41.247Z,31.00
2019-05-03T18:39:12.151Z,31.10
2019-05-03T18:41:45.187Z,31.80
2019-05-03T18:44:18.502Z,32.00
2019-05-03T18:46:50.581Z,33.20
2019-05-03T18:49:21.106Z,33.30
2019-05-03T18:51:55.406Z,33.20
2019-05-03T18:54:26.309Z,33.50
2019-05-03T18:56:57.236Z,34.80
2019-05-03T18:59:27.961Z,34.30
2019-05-03T19:01:58.356Z,35.60
2019-05-03T19:04:45.181Z,35.00
2019-05-03T19:07:21.499Z,34.40
2019-05-03T19:10:11.758Z,34.10
2019-05-03T19:12:56.009Z,35.50
2019-05-03T19:15:27.172Z,36.20
2019-05-03T19:18:04.414Z,36.70
2019-05-03T19:20:36.004Z,36.50
2019-05-03T19:23:06.366Z,35.90
2019-05-03T19:25:45.921Z,36.10
2019-05-03T19:28:09.987Z,36.50
2019-05-03T19:30:41.985Z,36.20
2019-05-03T19:33:13.807Z,36.70
2019-05-03T19:35:44.546Z,35.90
2019-05-03T19:38:16.615Z,36.70
2019-05-03T19:40:46.945Z,35.90
2019-05-03T19:43:17.755Z,35.50
2019-05-03T19:45:48.425Z,36.40
2019-05-03T19:48:18.786Z,36.40
2019-05-03T19:50:49.121Z,36.00
2019-05-03T19:53:30.493Z,37.00
2019-05-03T19:56:01.228Z,35.70
2019-05-03T19:58:31.851Z,35.50
2019-05-03T20:01:22.690Z,35.70
2019-05-03T20:04:10.876Z,35.70
2019-05-03T20:06:52.640Z,36.20
2019-05-03T20:09:25.871Z,35.70
2019-05-03T20:11:56.569Z,36.30
2019-05-03T20:14:26.956Z,35.30
2019-05-03T20:16:57.334Z,35.10
2019-05-03T20:19:30.638Z,34.90
2019-05-03T20:22:01.264Z,34.70
2019-05-03T20:24:32.000Z,34.40
2019-05-03T20:27:04.740Z,34.40
2019-05-03T20:29:36.218Z,35.10
2019-05-03T20:32:06.926Z,34.60
2019-05-03T20:34:38.990Z,34.00
2019-05-03T20:37:09.849Z,34.30
2019-05-03T20:39:42.367Z,34.50
2019-05-03T20:42:15.379Z,35.60
2019-05-03T20:44:51.234Z,33.90
2019-05-03T20:47:25.303Z,34.20
2019-05-03T20:50:15.534Z,33.90
2019-05-03T20:52:46.174Z,33.50
2019-05-03T20:55:16.919Z,33.70
2019-05-03T20:57:48.309Z,31.70
2019-05-03T21:00:20.632Z,31.80
2019-05-03T21:02:54.760Z,32.80
2019-05-03T21:05:29.976Z,32.90
2019-05-03T21:07:56.929Z,33.20
2019-05-03T21:10:27.648Z,33.20
2019-05-03T21:12:58.825Z,33.70
2019-05-03T21:15:35.498Z,33.90
2019-05-03T21:18:10.635Z,33.80
2019-05-03T21:20:45.719Z,35.50
2019-05-03T21:23:17.737Z,35.30
2019-05-03T21:26:12.580Z,35.70
2019-05-03T21:28:38.972Z,35.70
2019-05-03T21:31:10.857Z,36.70
2019-05-03T21:33:44.444Z,37.10
2019-05-03T21:36:15.090Z,37.20
2019-05-03T21:38:45.617Z,37.80
2019-05-03T21:41:15.999Z,38.40
2019-05-03T21:43:46.772Z,37.30
2019-05-03T21:46:27.438Z,37.30
2019-05-03T21:49:11.820Z,36.60
2019-05-03T21:51:42.221Z,37.30
2019-05-03T21:54:12.606Z,37.30
2019-05-03T21:56:44.682Z,37.40
2019-05-03T21:59:15.521Z,37.30
2019-05-03T22:01:47.459Z,38.00
2019-05-03T22:04:17.820Z,37.10
2019-05-03T22:06:48.178Z,37.30
2019-05-03T22:09:18.554Z,38.90
2019-05-03T22:11:48.931Z,37.90
2019-05-03T22:14:20.953Z,39.50
2019-05-03T22:16:56.061Z,39.70
2019-05-03T22:19:26.413Z,39.60
2019-05-03T22:22:14.894Z,40.10
2019-05-03T22:24:47.473Z,39.80
2019-05-03T22:27:18.968Z,39.20
2019-05-03T22:29:49.446Z,39.40
2019-05-03T22:32:19.920Z,38.00
2019-05-03T22:34:50.598Z,39.30
2019-05-03T22:37:21.121Z,38.80
2019-05-03T22:39:51.819Z,41.10
2019-05-03T22:42:22.209Z,42.30
2019-05-03T22:44:52.918Z,44.80
2019-05-03T22:47:25.200Z,44.40
2019-05-03T22:49:55.329Z,46.90
2019-05-03T22:52:25.864Z,46.60
2019-05-03T22:54:57.133Z,48.00
2019-05-03T22:57:27.938Z,48.40
2019-05-03T22:59:58.435Z,47.90
2019-05-03T23:02:29.133Z,46.70
2019-05-03T23:04:59.871Z,50.70
2019-05-03T23:07:30.792Z,49.60
2019-05-03T23:10:01.497Z,50.90
2019-05-03T23:12:32.248Z,50.80
2019-05-03T23:15:04.496Z,50.70
2019-05-03T23:17:34.982Z,52.20
2019-05-03T23:20:25.489Z,52.10
2019-05-03T23:22:56.717Z,53.90
2019-05-03T23:25:27.086Z,52.80
2019-05-03T23:27:57.413Z,52.70
2019-05-03T23:30:27.866Z,55.70
2019-05-03T23:32:58.192Z,56.50
2019-05-03T23:35:28.568Z,57.10
2019-05-03T23:37:58.929Z,56.30
2019-05-03T23:40:29.334Z,55.20
2019-05-03T23:43:00.084Z,55.20
2019-05-03T23:45:30.827Z,53.90
2019-05-03T23:48:01.158Z,53.60
2019-05-03T23:50:32.231Z,52.30
2019-05-03T23:53:04.830Z,53.60
2019-05-03T23:55:36.974Z,54.40
2019-05-03T23:58:07.953Z,55.20
